Schedule Details


Flight Number: CTN422
Departure: Kastela (LDSP) at 15:25
Arrival: Duesseldorf (EDDL) at 17:25
Route: ZDA UL607 BUSET DCT GIMIX DCT BADIT T700 STAUB UL610 LOHRE Z850 ADEMI T854 DOMUX

Weather Information
LDSP 081230Z 23013KT CAVOK 19/01 Q1024 NOSIG
EDDL 081250Z VRB03KT CAVOK 24/04 Q1023 NOSIG
Schedule Frequency

Route Map